Ncc Najd — HZAK — position and weather

sailwx.info

Track history (hours):
 
Tides and Currents Weather Stations Pressure Air Temp Water Temp Dewpoint Dewpoint Depression Visibility Wind Speed Wind Dir Waves Ship Positions

Ncc Najd

Last reported at 2017-Mar-28 01:34 UTC. Time now 2017-Mar-30 20:39 UTC.
Position N 22°19' E 120°04'.

Length 183 m; draft 7.6 m.

Type: Tanker. MMSI: 403579000.

Date/timePositionNaut miles runAvg speedWind from/ knotsBaromVisibWave heightAir tempDewpointWater temp
2017-Mar-28 01:34N 22°19' E 120°04'1414.3
2017-Mar-28 00:34N 22°31' E 120°11'7 7.3
2017-Mar-27 23:33N 22°34' E 120°19'1 0.6
2017-Mar-27 21:31N 22°35' E 120°18'0 0.0
2017-Mar-27 20:28N 22°35' E 120°18'0 0.0
2017-Mar-27 19:31N 22°35' E 120°18'0 0.0
2017-Mar-27 18:25N 22°35' E 120°18'0 0.0
2017-Mar-27 17:28N 22°35' E 120°18'0 0.0
2017-Mar-27 16:16N 22°35' E 120°18'0 0.0
2017-Mar-27 15:19N 22°35' E 120°18'0 0.0
2017-Mar-27 14:31N 22°35' E 120°18'0 0.0
2017-Mar-27 13:22N 22°35' E 120°18'0 0.0
2017-Mar-27 12:31N 22°35' E 120°18'0 0.0
2017-Mar-27 11:19N 22°35' E 120°18'0 0.0
2017-Mar-27 10:22N 22°35' E 120°18'0 0.0
2017-Mar-27 09:28N 22°35' E 120°18'0 0.0
2017-Mar-27 08:31N 22°35' E 120°18'0 0.0
2017-Mar-27 07:28N 22°35' E 120°18'0 0.0
2017-Mar-27 06:28N 22°35' E 120°18'0 0.0
2017-Mar-27 05:31N 22°35' E 120°18'0 0.3
2017-Mar-27 04:32N 22°35' E 120°18'0 0.0
2017-Mar-27 03:29N 22°35' E 120°18'0 0.0
2017-Mar-27 02:32N 22°35' E 120°18'0 0.0
2017-Mar-27 01:32N 22°35' E 120°18'0 0.0
2017-Mar-27 00:32N 22°35' E 120°18'0 0.0
2017-Mar-26 23:32N 22°35' E 120°18'0 0.0
2017-Mar-26 22:29N 22°35' E 120°18'0 0.0
2017-Mar-26 21:32N 22°35' E 120°18'0 0.0
2017-Mar-26 20:32N 22°35' E 120°18'0 0.0
2017-Mar-26 19:29N 22°35' E 120°18'0 0.0
2017-Mar-26 18:32N 22°35' E 120°18'0 0.0
2017-Mar-26 17:29N 22°35' E 120°18'0 0.0
2017-Mar-26 16:32N 22°35' E 120°18'0 0.0
2017-Mar-26 15:32N 22°35' E 120°18'0 0.0
2017-Mar-26 14:32N 22°35' E 120°18'0 0.0
2017-Mar-26 13:26N 22°35' E 120°18'0 0.0
2017-Mar-26 12:32N 22°35' E 120°18'0 0.0
2017-Mar-26 11:32N 22°35' E 120°18'0 0.0
2017-Mar-26 10:26N 22°35' E 120°18'0 0.0
2017-Mar-26 08:20N 22°35' E 120°18'0 0.0
2017-Mar-26 07:17N 22°35' E 120°18'0 0.0
2017-Mar-26 06:20N 22°35' E 120°18'0 0.0
2017-Mar-26 05:32N 22°35' E 120°18'0 0.0
2017-Mar-26 04:29N 22°35' E 120°18'0 0.0
2017-Mar-26 03:26N 22°35' E 120°18'0 0.0
2017-Mar-26 02:32N 22°35' E 120°18'0 0.0
2017-Mar-26 01:32N 22°35' E 120°18'0 0.1
2017-Mar-26 00:33N 22°35' E 120°18'5 5.2
2017-Mar-25 23:33N 22°37' E 120°13'1 1.2
2017-Mar-25 22:33N 22°36' E 120°13'0 0.4
2017-Mar-25 21:32N 22°36' E 120°13'0 0.0
2017-Mar-25 20:29N 22°36' E 120°13'0 0.1
2017-Mar-25 19:32N 22°36' E 120°13'0 0.0
2017-Mar-25 18:32N 22°36' E 120°13'0 0.0
2017-Mar-25 17:32N 22°36' E 120°13'0 0.1
2017-Mar-25 16:32N 22°36' E 120°13'0 0.1
2017-Mar-25 15:32N 22°36' E 120°13'0 0.1
2017-Mar-25 14:32N 22°36' E 120°13'1 1.4
2017-Mar-25 13:33N 22°34' E 120°13'7 7.0
2017-Mar-25 12:33N 22°39' E 120°07'1515.1
2017-Mar-25 11:33N 22°48' E 119°54'  
Track history (hours):
 
Tides and Currents Weather Stations Pressure Air Temp Water Temp Dewpoint Dewpoint Depression Visibility Wind Speed Wind Dir Waves Ship Positions

Ncc Najd

Last reported at 2017-Mar-28 01:34 UTC. Time now 2017-Mar-30 20:39 UTC.
Position N 22°19' E 120°04'.

Length 183 m; draft 7.6 m.

Type: Tanker. MMSI: 403579000.

Date/timePositionNaut miles runAvg speedWind from/ knotsBaromVisibWave heightAir tempDewpointWater temp
2017-Mar-28 01:34N 22°19' E 120°04'1414.3
2017-Mar-28 00:34N 22°31' E 120°11'7 7.3
2017-Mar-27 23:33N 22°34' E 120°19'1 0.6
2017-Mar-27 21:31N 22°35' E 120°18'0 0.0
2017-Mar-27 20:28N 22°35' E 120°18'0 0.0
2017-Mar-27 19:31N 22°35' E 120°18'0 0.0
2017-Mar-27 18:25N 22°35' E 120°18'0 0.0
2017-Mar-27 17:28N 22°35' E 120°18'0 0.0
2017-Mar-27 16:16N 22°35' E 120°18'0 0.0
2017-Mar-27 15:19N 22°35' E 120°18'0 0.0
2017-Mar-27 14:31N 22°35' E 120°18'0 0.0
2017-Mar-27 13:22N 22°35' E 120°18'0 0.0
2017-Mar-27 12:31N 22°35' E 120°18'0 0.0
2017-Mar-27 11:19N 22°35' E 120°18'0 0.0
2017-Mar-27 10:22N 22°35' E 120°18'0 0.0
2017-Mar-27 09:28N 22°35' E 120°18'0 0.0
2017-Mar-27 08:31N 22°35' E 120°18'0 0.0
2017-Mar-27 07:28N 22°35' E 120°18'0 0.0
2017-Mar-27 06:28N 22°35' E 120°18'0 0.0
2017-Mar-27 05:31N 22°35' E 120°18'0 0.3
2017-Mar-27 04:32N 22°35' E 120°18'0 0.0
2017-Mar-27 03:29N 22°35' E 120°18'0 0.0
2017-Mar-27 02:32N 22°35' E 120°18'0 0.0
2017-Mar-27 01:32N 22°35' E 120°18'0 0.0
2017-Mar-27 00:32N 22°35' E 120°18'0 0.0
2017-Mar-26 23:32N 22°35' E 120°18'0 0.0
2017-Mar-26 22:29N 22°35' E 120°18'0 0.0
2017-Mar-26 21:32N 22°35' E 120°18'0 0.0
2017-Mar-26 20:32N 22°35' E 120°18'0 0.0
2017-Mar-26 19:29N 22°35' E 120°18'0 0.0
2017-Mar-26 18:32N 22°35' E 120°18'0 0.0
2017-Mar-26 17:29N 22°35' E 120°18'0 0.0
2017-Mar-26 16:32N 22°35' E 120°18'0 0.0
2017-Mar-26 15:32N 22°35' E 120°18'0 0.0
2017-Mar-26 14:32N 22°35' E 120°18'0 0.0
2017-Mar-26 13:26N 22°35' E 120°18'0 0.0
2017-Mar-26 12:32N 22°35' E 120°18'0 0.0
2017-Mar-26 11:32N 22°35' E 120°18'0 0.0
2017-Mar-26 10:26N 22°35' E 120°18'0 0.0
2017-Mar-26 08:20N 22°35' E 120°18'0 0.0
2017-Mar-26 07:17N 22°35' E 120°18'0 0.0
2017-Mar-26 06:20N 22°35' E 120°18'0 0.0
2017-Mar-26 05:32N 22°35' E 120°18'0 0.0
2017-Mar-26 04:29N 22°35' E 120°18'0 0.0
2017-Mar-26 03:26N 22°35' E 120°18'0 0.0
2017-Mar-26 02:32N 22°35' E 120°18'0 0.0
2017-Mar-26 01:32N 22°35' E 120°18'0 0.1
2017-Mar-26 00:33N 22°35' E 120°18'5 5.2
2017-Mar-25 23:33N 22°37' E 120°13'1 1.2
2017-Mar-25 22:33N 22°36' E 120°13'0 0.4
2017-Mar-25 21:32N 22°36' E 120°13'0 0.0
2017-Mar-25 20:29N 22°36' E 120°13'0 0.1
2017-Mar-25 19:32N 22°36' E 120°13'0 0.0
2017-Mar-25 18:32N 22°36' E 120°13'0 0.0
2017-Mar-25 17:32N 22°36' E 120°13'0 0.1
2017-Mar-25 16:32N 22°36' E 120°13'0 0.1
2017-Mar-25 15:32N 22°36' E 120°13'0 0.1
2017-Mar-25 14:32N 22°36' E 120°13'1 1.4
2017-Mar-25 13:33N 22°34' E 120°13'7 7.0
2017-Mar-25 12:33N 22°39' E 120°07'1515.1
2017-Mar-25 11:33N 22°48' E 119°54'  

Dump ship's entire track history